Time;durP1;ratioP1;P1;durP2;ratioP2;P2;SDS_P1;SDS_P2;PMS_P1;PMS_P2;Temp;Humidity;BMP_temperature;BMP_pressure;BME280_temperature;BME280_humidity;BME280_pressure;Samples;Min_cycle;Max_cycle;Signal;HPM_P1;HPM_P2
2023/08/04 00:00:17;;;;;;;0.57;0.55;;;;;;;;;;5055424;28;20471;-77
2023/08/04 00:02:43;;;;;;;0.50;0.50;;;;;;;;;;5057408;28;20037;-77
2023/08/04 00:05:09;;;;;;;0.32;0.32;;;;;;;;;;5062699;28;20029;-77
2023/08/04 00:07:35;;;;;;;0.50;0.50;;;;;;;;;;5068662;28;20534;-78
2023/08/04 00:10:01;;;;;;;0.50;0.50;;;;;;;;;;5059962;28;20523;-77
2023/08/04 00:12:28;;;;;;;0.98;0.75;;;;;;;;;;5065932;28;20426;-77
2023/08/04 00:14:53;;;;;;;0.47;0.45;;;;;;;;;;5059869;28;20028;-77
2023/08/04 00:17:19;;;;;;;0.50;0.50;;;;;;;;;;5055806;28;20098;-77
2023/08/04 00:19:45;;;;;;;0.50;0.50;;;;;;;;;;5063070;28;20029;-77
2023/08/04 00:22:11;;;;;;;0.40;0.40;;;;;;;;;;5051784;28;20044;-77
2023/08/04 00:24:37;;;;;;;2.60;0.50;;;;;;;;;;5057739;28;20016;-77
2023/08/04 00:27:03;;;;;;;0.52;0.52;;;;;;;;;;5069256;28;20029;-77
2023/08/04 00:29:29;;;;;;;0.57;0.40;;;;;;;;;;5065046;28;20726;-77
2023/08/04 00:31:56;;;;;;;0.32;0.32;;;;;;;;;;5053619;28;20033;-77
2023/08/04 00:34:22;;;;;;;0.40;0.40;;;;;;;;;;5052294;28;20083;-77
2023/08/04 00:36:48;;;;;;;0.50;0.50;;;;;;;;;;5069842;28;20084;-77
2023/08/04 00:39:14;;;;;;;0.40;0.40;;;;;;;;;;5052106;28;20423;-78
2023/08/04 00:41:41;;;;;;;0.63;0.40;;;;;;;;;;5062130;28;20021;-77
2023/08/04 00:44:07;;;;;;;0.40;0.40;;;;;;;;;;5051546;28;20040;-77
2023/08/04 00:46:33;;;;;;;0.35;0.35;;;;;;;;;;5062134;28;20023;-77
2023/08/04 00:49:00;;;;;;;0.32;0.32;;;;;;;;;;5051729;28;20033;-77
2023/08/04 00:51:26;;;;;;;0.40;0.40;;;;;;;;;;5058931;28;20040;-77
2023/08/04 00:53:52;;;;;;;0.40;0.40;;;;;;;;;;5050446;28;20125;-77
2023/08/04 00:56:19;;;;;;;0.40;0.40;;;;;;;;;;5064893;28;20037;-77
2023/08/04 00:58:45;;;;;;;0.57;0.55;;;;;;;;;;5064533;28;20036;-77
2023/08/04 01:01:10;;;;;;;0.30;0.28;;;;;;;;;;5064169;28;20028;-77
2023/08/04 01:03:38;;;;;;;0.40;0.40;;;;;;;;;;5061380;28;20040;-77
2023/08/04 01:06:09;;;;;;;0.50;0.50;;;;;;;;;;5062154;28;20017;-77
2023/08/04 01:08:35;;;;;;;0.40;0.40;;;;;;;;;;5065452;28;20021;-77
2023/08/04 01:11:03;;;;;;;0.43;0.43;;;;;;;;;;5053405;28;20044;-77
2023/08/04 01:13:29;;;;;;;3.13;0.32;;;;;;;;;;5053566;28;20032;-77
2023/08/04 01:15:56;;;;;;;0.40;0.40;;;;;;;;;;5051499;28;20033;-77
2023/08/04 01:18:23;;;;;;;0.47;0.45;;;;;;;;;;5050903;28;20032;-77
2023/08/04 01:20:49;;;;;;;0.65;0.65;;;;;;;;;;5056513;28;20055;-77
2023/08/04 01:23:15;;;;;;;0.57;0.43;;;;;;;;;;5051353;28;20037;-77
2023/08/04 01:25:42;;;;;;;0.50;0.50;;;;;;;;;;5049665;28;20032;-77
2023/08/04 01:28:10;;;;;;;0.45;0.45;;;;;;;;;;5049114;28;20033;-77
2023/08/04 01:30:37;;;;;;;0.93;0.50;;;;;;;;;;5052710;28;20082;-77
2023/08/04 01:33:03;;;;;;;0.40;0.40;;;;;;;;;;5049106;28;20064;-78
2023/08/04 01:35:30;;;;;;;0.40;0.40;;;;;;;;;;5052170;28;20116;-77
2023/08/04 01:37:56;;;;;;;0.43;0.43;;;;;;;;;;5056811;28;20090;-77
2023/08/04 01:40:22;;;;;;;0.73;0.40;;;;;;;;;;5066991;28;20044;-77
2023/08/04 01:42:48;;;;;;;0.65;0.60;;;;;;;;;;5052582;28;20032;-77
2023/08/04 01:45:14;;;;;;;1.55;0.80;;;;;;;;;;5052899;28;20056;-77
2023/08/04 01:47:40;;;;;;;0.50;0.50;;;;;;;;;;5053509;28;20029;-77
2023/08/04 01:50:09;;;;;;;0.60;0.60;;;;;;;;;;5070912;28;20043;-77
2023/08/04 01:52:35;;;;;;;0.45;0.45;;;;;;;;;;5066162;28;20033;-77
2023/08/04 01:55:01;;;;;;;0.40;0.40;;;;;;;;;;5055827;28;20040;-77
2023/08/04 01:57:27;;;;;;;0.40;0.40;;;;;;;;;;5063920;28;20054;-77
2023/08/04 01:59:53;;;;;;;0.60;0.60;;;;;;;;;;5057416;28;20040;-77
2023/08/04 02:02:19;;;;;;;0.50;0.50;;;;;;;;;;5058348;28;20025;-78
2023/08/04 02:04:45;;;;;;;0.50;0.50;;;;;;;;;;5056680;28;20037;-78
2023/08/04 02:07:11;;;;;;;0.60;0.60;;;;;;;;;;5052209;28;20025;-77
2023/08/04 02:09:37;;;;;;;0.50;0.50;;;;;;;;;;5055886;28;20044;-77
2023/08/04 02:12:03;;;;;;;0.40;0.40;;;;;;;;;;5065880;28;20028;-77
2023/08/04 02:14:29;;;;;;;0.52;0.52;;;;;;;;;;5052891;28;20124;-77
2023/08/04 02:16:55;;;;;;;0.40;0.40;;;;;;;;;;5049525;28;20113;-77
2023/08/04 02:19:22;;;;;;;1.30;0.80;;;;;;;;;;5053207;28;20116;-77
2023/08/04 02:21:48;;;;;;;0.50;0.50;;;;;;;;;;5048445;28;20136;-77
2023/08/04 02:24:14;;;;;;;0.50;0.50;;;;;;;;;;5054165;28;20033;-77
2023/08/04 02:26:40;;;;;;;0.57;0.57;;;;;;;;;;5054206;28;20500;-77
2023/08/04 02:29:06;;;;;;;0.45;0.45;;;;;;;;;;5058670;28;20471;-77
2023/08/04 02:31:33;;;;;;;0.52;0.52;;;;;;;;;;5064270;28;20020;-78
2023/08/04 02:33:59;;;;;;;1.02;0.70;;;;;;;;;;5058691;28;20063;-78
2023/08/04 02:36:25;;;;;;;0.73;0.73;;;;;;;;;;5060900;28;20029;-77
2023/08/04 02:38:51;;;;;;;1.67;0.70;;;;;;;;;;5054864;28;20040;-77
2023/08/04 02:41:17;;;;;;;0.40;0.40;;;;;;;;;;5060722;28;20028;-77
2023/08/04 02:43:43;;;;;;;2.25;0.70;;;;;;;;;;5051842;28;20415;-77
2023/08/04 02:46:10;;;;;;;0.70;0.70;;;;;;;;;;5055484;28;20021;-77
2023/08/04 02:48:37;;;;;;;0.50;0.50;;;;;;;;;;5053300;28;20090;-77
2023/08/04 02:51:03;;;;;;;0.80;0.73;;;;;;;;;;5064552;28;20124;-77
2023/08/04 02:53:29;;;;;;;0.68;0.68;;;;;;;;;;5051446;28;20024;-77
2023/08/04 02:55:55;;;;;;;0.50;0.50;;;;;;;;;;5055171;28;20036;-77
2023/08/04 02:58:22;;;;;;;1.50;0.98;;;;;;;;;;5060917;28;20048;-78
2023/08/04 03:00:48;;;;;;;0.82;0.57;;;;;;;;;;5048597;28;20037;-78
2023/08/04 03:03:14;;;;;;;0.45;0.45;;;;;;;;;;5063802;28;20040;-77
2023/08/04 03:05:39;;;;;;;0.40;0.40;;;;;;;;;;5053131;28;20029;-78
2023/08/04 03:08:05;;;;;;;0.75;0.60;;;;;;;;;;5055437;28;20499;-76
2023/08/04 03:10:31;;;;;;;0.60;0.60;;;;;;;;;;5053991;28;20017;-77
2023/08/04 03:12:57;;;;;;;0.50;0.50;;;;;;;;;;5053728;28;20447;-77
2023/08/04 03:15:23;;;;;;;3.15;0.70;;;;;;;;;;5054443;28;20382;-78
2023/08/04 03:17:51;;;;;;;0.47;0.47;;;;;;;;;;5055043;28;20043;-78
2023/08/04 03:20:17;;;;;;;0.73;0.73;;;;;;;;;;5058379;28;20045;-77
2023/08/04 03:22:43;;;;;;;2.05;0.60;;;;;;;;;;5058147;28;20063;-78
2023/08/04 03:25:09;;;;;;;0.60;0.43;;;;;;;;;;5063457;28;20052;-77
2023/08/04 03:27:36;;;;;;;0.60;0.60;;;;;;;;;;5052488;28;20047;-78
2023/08/04 03:30:02;;;;;;;0.70;0.70;;;;;;;;;;5062382;28;20013;-77
2023/08/04 03:32:28;;;;;;;0.88;0.88;;;;;;;;;;5054541;28;20078;-78
2023/08/04 03:34:54;;;;;;;0.90;0.77;;;;;;;;;;5063448;28;20380;-78
2023/08/04 03:37:20;;;;;;;2.15;0.80;;;;;;;;;;5063750;28;20558;-77
2023/08/04 03:39:46;;;;;;;0.50;0.50;;;;;;;;;;5062454;28;20824;-77
2023/08/04 03:42:12;;;;;;;0.50;0.50;;;;;;;;;;5054874;28;20480;-78
2023/08/04 03:44:38;;;;;;;0.60;0.60;;;;;;;;;;5056516;28;20028;-78
2023/08/04 03:47:04;;;;;;;0.70;0.70;;;;;;;;;;5054405;28;20029;-78
2023/08/04 03:49:30;;;;;;;0.65;0.65;;;;;;;;;;5060294;28;20029;-78
2023/08/04 03:51:56;;;;;;;0.57;0.57;;;;;;;;;;5070901;28;20046;-78
2023/08/04 03:54:22;;;;;;;0.60;0.52;;;;;;;;;;5061137;28;20415;-77
2023/08/04 03:56:47;;;;;;;0.40;0.40;;;;;;;;;;5067335;28;20534;-78
2023/08/04 03:59:13;;;;;;;0.50;0.50;;;;;;;;;;5055278;28;20032;-78
2023/08/04 04:01:39;;;;;;;0.60;0.60;;;;;;;;;;5062559;28;20025;-77
2023/08/04 04:04:05;;;;;;;1.27;0.60;;;;;;;;;;5067964;28;20028;-79
2023/08/04 04:06:31;;;;;;;0.93;0.55;;;;;;;;;;5061740;28;20024;-76
2023/08/04 04:08:57;;;;;;;1.20;0.82;;;;;;;;;;5059197;28;20035;-76
2023/08/04 04:11:23;;;;;;;0.95;0.63;;;;;;;;;;5063089;28;20059;-77
2023/08/04 04:13:49;;;;;;;0.50;0.50;;;;;;;;;;5056815;28;20028;-77
2023/08/04 04:16:15;;;;;;;0.93;0.65;;;;;;;;;;5052798;28;20040;-76
2023/08/04 04:18:41;;;;;;;0.50;0.50;;;;;;;;;;5051493;28;20028;-76
2023/08/04 04:21:07;;;;;;;0.80;0.70;;;;;;;;;;5053712;28;20064;-76
2023/08/04 04:23:33;;;;;;;0.60;0.60;;;;;;;;;;5054283;28;20066;-77
2023/08/04 04:25:59;;;;;;;0.77;0.77;;;;;;;;;;5067430;28;20703;-77
2023/08/04 04:28:25;;;;;;;0.50;0.50;;;;;;;;;;5054832;28;20032;-77
2023/08/04 04:30:51;;;;;;;0.77;0.77;;;;;;;;;;5056090;28;20020;-77
2023/08/04 04:33:17;;;;;;;0.50;0.50;;;;;;;;;;5055561;28;20028;-77
2023/08/04 04:35:49;;;;;;;1.23;0.95;;;;;;;;;;5059724;28;20051;-77
2023/08/04 04:38:15;;;;;;;0.85;0.68;;;;;;;;;;5059867;28;20060;-77
2023/08/04 04:40:41;;;;;;;0.82;0.80;;;;;;;;;;5060194;28;20051;-77
2023/08/04 04:43:07;;;;;;;0.65;0.60;;;;;;;;;;5056837;28;20039;-77
2023/08/04 04:45:33;;;;;;;0.98;0.63;;;;;;;;;;5061368;28;20032;-77
2023/08/04 04:47:59;;;;;;;0.60;0.60;;;;;;;;;;5060531;28;20024;-77
2023/08/04 04:50:25;;;;;;;0.80;0.80;;;;;;;;;;5049663;28;20027;-77
2023/08/04 04:52:51;;;;;;;1.13;0.88;;;;;;;;;;5060252;28;20070;-77
2023/08/04 04:55:17;;;;;;;0.60;0.60;;;;;;;;;;5051549;28;20043;-77
2023/08/04 04:57:43;;;;;;;2.97;1.02;;;;;;;;;;5057306;28;20122;-77
2023/08/04 05:00:10;;;;;;;0.60;0.60;;;;;;;;;;5056166;28;20043;-77
2023/08/04 05:02:36;;;;;;;0.90;0.88;;;;;;;;;;5059289;28;20383;-77
2023/08/04 05:05:03;;;;;;;0.60;0.60;;;;;;;;;;5063107;28;20035;-77
2023/08/04 05:07:29;;;;;;;0.50;0.50;;;;;;;;;;5060583;28;20383;-77
2023/08/04 05:09:55;;;;;;;0.98;0.95;;;;;;;;;;5058967;28;20028;-77
2023/08/04 05:12:21;;;;;;;0.52;0.52;;;;;;;;;;5058862;28;21931;-77
2023/08/04 05:14:47;;;;;;;0.80;0.80;;;;;;;;;;5049661;28;20048;-77
2023/08/04 05:17:13;;;;;;;0.60;0.60;;;;;;;;;;5056107;28;20112;-77
2023/08/04 05:19:39;;;;;;;1.13;0.73;;;;;;;;;;5056362;28;20387;-78
2023/08/04 05:22:05;;;;;;;0.50;0.50;;;;;;;;;;5055347;28;20049;-77
2023/08/04 05:24:31;;;;;;;1.13;0.82;;;;;;;;;;5054031;28;20093;-77
2023/08/04 05:26:58;;;;;;;1.23;0.77;;;;;;;;;;5055680;28;20484;-77
2023/08/04 05:29:23;;;;;;;2.67;0.70;;;;;;;;;;5055073;28;20570;-77
2023/08/04 05:31:49;;;;;;;1.85;0.98;;;;;;;;;;5050356;28;20025;-77
2023/08/04 05:34:15;;;;;;;1.08;1.08;;;;;;;;;;5049745;28;20029;-77
2023/08/04 05:36:41;;;;;;;1.00;0.80;;;;;;;;;;5059951;28;20043;-77
2023/08/04 05:39:07;;;;;;;0.73;0.73;;;;;;;;;;5065982;28;20091;-75
2023/08/04 05:41:33;;;;;;;0.63;0.63;;;;;;;;;;5058017;28;20033;-78
2023/08/04 05:43:59;;;;;;;0.50;0.50;;;;;;;;;;5055920;28;20495;-79
2023/08/04 05:46:25;;;;;;;1.42;0.80;;;;;;;;;;5054957;28;20035;-79
2023/08/04 05:48:51;;;;;;;0.63;0.60;;;;;;;;;;5054881;28;20836;-78
2023/08/04 05:51:17;;;;;;;1.25;0.80;;;;;;;;;;5056995;28;20402;-78
2023/08/04 05:53:43;;;;;;;0.77;0.77;;;;;;;;;;5059911;28;20059;-77
2023/08/04 05:56:10;;;;;;;1.52;1.00;;;;;;;;;;5065374;28;20039;-78
2023/08/04 05:58:36;;;;;;;0.80;0.80;;;;;;;;;;5063593;28;20040;-78
2023/08/04 06:01:02;;;;;;;1.00;0.90;;;;;;;;;;5047912;28;20591;-71
2023/08/04 06:03:28;;;;;;;0.80;0.80;;;;;;;;;;5058060;28;20382;-76
2023/08/04 06:05:54;;;;;;;1.08;0.82;;;;;;;;;;5066480;28;20020;-77
2023/08/04 06:08:20;;;;;;;3.35;1.23;;;;;;;;;;5061469;28;20056;-77
2023/08/04 06:10:46;;;;;;;3.90;1.30;;;;;;;;;;5055823;28;20086;-77
2023/08/04 06:13:12;;;;;;;1.45;0.90;;;;;;;;;;5062222;28;20029;-76
2023/08/04 06:15:38;;;;;;;1.85;1.27;;;;;;;;;;5069389;28;20112;-77
2023/08/04 06:18:04;;;;;;;1.55;1.40;;;;;;;;;;5055981;28;20035;-76
2023/08/04 06:20:30;;;;;;;1.23;0.80;;;;;;;;;;5052226;28;20402;-76
2023/08/04 06:23:02;;;;;;;3.55;0.98;;;;;;;;;;5068127;28;20075;-75
2023/08/04 06:25:28;;;;;;;1.65;0.93;;;;;;;;;;5057917;28;20043;-78
2023/08/04 06:27:54;;;;;;;5.57;1.17;;;;;;;;;;5050739;28;20479;-77
2023/08/04 06:30:20;;;;;;;3.80;1.10;;;;;;;;;;5056414;28;20017;-76
2023/08/04 06:32:47;;;;;;;2.00;1.15;;;;;;;;;;5051891;28;20033;-77
2023/08/04 06:35:13;;;;;;;0.98;0.80;;;;;;;;;;5049062;28;20032;-78
2023/08/04 06:37:39;;;;;;;1.27;1.00;;;;;;;;;;5047786;28;20543;-76
2023/08/04 06:40:05;;;;;;;0.60;0.60;;;;;;;;;;5051839;28;20046;-75
2023/08/04 06:42:31;;;;;;;7.10;1.58;;;;;;;;;;5056531;28;20074;-76
2023/08/04 06:44:57;;;;;;;10.98;1.60;;;;;;;;;;5063750;28;20025;-77
2023/08/04 06:47:26;;;;;;;1.83;0.98;;;;;;;;;;5049183;28;20318;-77
2023/08/04 06:49:52;;;;;;;2.08;1.25;;;;;;;;;;5048754;28;20382;-78
2023/08/04 06:52:17;;;;;;;2.08;0.90;;;;;;;;;;5060650;28;20017;-75
2023/08/04 06:54:43;;;;;;;8.02;1.23;;;;;;;;;;5050615;28;20512;-76
2023/08/04 06:57:09;;;;;;;2.65;1.52;;;;;;;;;;5064157;28;20029;-77
2023/08/04 06:59:35;;;;;;;2.03;1.08;;;;;;;;;;5049713;28;20029;-76
2023/08/04 07:02:01;;;;;;;2.85;1.50;;;;;;;;;;5047304;28;20357;-77
2023/08/04 07:04:27;;;;;;;1.75;0.93;;;;;;;;;;5054036;28;20029;-76
2023/08/04 07:06:54;;;;;;;10.07;1.90;;;;;;;;;;5047618;28;20105;-76
2023/08/04 07:09:20;;;;;;;2.47;1.02;;;;;;;;;;5047813;28;20430;-77
2023/08/04 07:11:46;;;;;;;2.30;1.20;;;;;;;;;;5051710;28;20463;-82
2023/08/04 07:14:12;;;;;;;5.18;2.17;;;;;;;;;;5061679;28;20029;-79
2023/08/04 07:16:38;;;;;;;2.63;1.10;;;;;;;;;;5059169;28;20028;-79
2023/08/04 07:19:04;;;;;;;0.88;0.88;;;;;;;;;;5057436;28;20059;-77
2023/08/04 07:21:30;;;;;;;1.90;1.40;;;;;;;;;;5056261;28;20041;-77
2023/08/04 07:23:59;;;;;;;1.48;1.23;;;;;;;;;;5051357;28;20491;-85
2023/08/04 07:26:25;;;;;;;0.98;0.90;;;;;;;;;;5052453;28;20021;-76
2023/08/04 07:28:51;;;;;;;2.83;1.77;;;;;;;;;;5053944;28;20115;-83
2023/08/04 07:31:17;;;;;;;5.13;1.42;;;;;;;;;;5054192;28;20642;-81
2023/08/04 07:33:43;;;;;;;1.60;1.10;;;;;;;;;;5064914;28;20028;-81
2023/08/04 07:36:09;;;;;;;1.23;1.10;;;;;;;;;;5055493;28;20041;-77
2023/08/04 07:38:38;;;;;;;2.35;1.48;;;;;;;;;;5056111;28;20028;-83
2023/08/04 07:41:04;;;;;;;1.52;1.00;;;;;;;;;;5070118;28;20024;-82
2023/08/04 07:43:30;;;;;;;2.20;1.20;;;;;;;;;;5064394;28;20053;-81
2023/08/04 07:45:56;;;;;;;2.05;0.85;;;;;;;;;;5053493;28;20032;-79
2023/08/04 07:48:22;;;;;;;1.13;1.02;;;;;;;;;;5048889;28;20029;-79
2023/08/04 07:50:50;;;;;;;1.17;1.08;;;;;;;;;;5053982;28;20034;-80
2023/08/04 07:53:15;;;;;;;2.25;1.00;;;;;;;;;;5054374;28;20123;-81
2023/08/04 07:55:41;;;;;;;0.70;0.70;;;;;;;;;;5051147;28;20029;-80
2023/08/04 07:58:19;;;;;;;1.60;1.20;;;;;;;;;;5050234;28;20032;-80
2023/08/04 08:00:45;;;;;;;0.73;0.73;;;;;;;;;;5061409;28;20038;-80
2023/08/04 08:03:11;;;;;;;0.93;0.90;;;;;;;;;;5061822;28;20037;-79
2023/08/04 08:05:37;;;;;;;1.05;0.90;;;;;;;;;;5067701;28;20029;-81
2023/08/04 08:08:03;;;;;;;1.40;0.80;;;;;;;;;;5063592;28;20054;-80
2023/08/04 08:10:30;;;;;;;1.23;1.00;;;;;;;;;;5063013;28;20107;-80
2023/08/04 08:12:56;;;;;;;1.05;0.80;;;;;;;;;;5063930;28;20445;-77
2023/08/04 08:15:22;;;;;;;0.80;0.80;;;;;;;;;;5052040;28;20041;-80
2023/08/04 08:17:48;;;;;;;1.13;1.10;;;;;;;;;;5054743;28;20037;-81
2023/08/04 08:20:14;;;;;;;2.97;1.30;;;;;;;;;;5057635;28;20042;-80
2023/08/04 08:22:40;;;;;;;1.48;1.38;;;;;;;;;;5054765;28;20511;-79
2023/08/04 08:25:06;;;;;;;1.38;1.15;;;;;;;;;;5058542;28;20383;-79
2023/08/04 08:27:32;;;;;;;2.22;1.38;;;;;;;;;;5053703;28;20046;-77
2023/08/04 08:29:58;;;;;;;3.38;0.93;;;;;;;;;;5054732;28;20036;-79
2023/08/04 08:32:27;;;;;;;1.40;1.00;;;;;;;;;;5060261;28;20032;-78
2023/08/04 08:34:53;;;;;;;3.53;0.93;;;;;;;;;;5053433;28;20491;-79
2023/08/04 08:37:19;;;;;;;3.78;1.02;;;;;;;;;;5057860;28;20528;-79
2023/08/04 08:39:45;;;;;;;1.65;0.98;;;;;;;;;;5060442;28;20051;-80
2023/08/04 08:42:20;;;;;;;1.42;1.10;;;;;;;;;;5062121;28;20138;-81
2023/08/04 08:44:46;;;;;;;1.65;0.90;;;;;;;;;;5050764;28;20075;-80
2023/08/04 08:47:12;;;;;;;2.70;1.50;;;;;;;;;;5059425;28;20059;-81
2023/08/04 08:49:45;;;;;;;1.20;1.10;;;;;;;;;;5053684;28;20048;-78
2023/08/04 08:52:11;;;;;;;2.20;1.00;;;;;;;;;;5065119;28;20025;-78
2023/08/04 08:54:37;;;;;;;2.45;1.17;;;;;;;;;;5052060;28;20033;-78
2023/08/04 08:57:11;;;;;;;3.03;1.15;;;;;;;;;;5049688;28;20044;-79
2023/08/04 08:59:37;;;;;;;1.38;0.93;;;;;;;;;;5061015;28;20021;-78
2023/08/04 09:02:03;;;;;;;2.20;1.20;;;;;;;;;;5061826;28;20040;-80
2023/08/04 09:04:37;;;;;;;1.15;1.05;;;;;;;;;;5062182;28;20017;-79
2023/08/04 09:07:03;;;;;;;1.25;1.00;;;;;;;;;;5070291;28;20017;-78
2023/08/04 09:09:29;;;;;;;1.67;1.13;;;;;;;;;;5055958;28;20036;-78
2023/08/04 09:11:59;;;;;;;1.55;0.93;;;;;;;;;;5051191;28;20025;-79
2023/08/04 09:14:25;;;;;;;3.15;0.88;;;;;;;;;;5070275;28;20116;-77
2023/08/04 09:16:51;;;;;;;1.10;1.00;;;;;;;;;;5070236;28;20029;-79
2023/08/04 09:19:17;;;;;;;2.08;0.80;;;;;;;;;;5064885;28;20029;-79
2023/08/04 09:21:43;;;;;;;1.42;1.10;;;;;;;;;;5052630;28;20095;-79
2023/08/04 09:24:10;;;;;;;1.42;0.95;;;;;;;;;;5052963;28;20036;-79
2023/08/04 09:26:46;;;;;;;1.65;1.00;;;;;;;;;;5063228;28;20395;-79
2023/08/04 09:29:13;;;;;;;1.30;0.88;;;;;;;;;;5054232;28;20033;-79
2023/08/04 09:31:39;;;;;;;1.30;1.10;;;;;;;;;;5049844;28;20100;-80
2023/08/04 09:34:06;;;;;;;1.90;1.10;;;;;;;;;;5056173;28;20505;-78
2023/08/04 09:36:37;;;;;;;0.80;0.80;;;;;;;;;;5051525;28;20666;-80
2023/08/04 09:39:04;;;;;;;1.17;1.00;;;;;;;;;;5051182;28;20135;-80
2023/08/04 09:41:35;;;;;;;0.90;0.90;;;;;;;;;;5049516;28;20029;-80
2023/08/04 09:44:05;;;;;;;1.33;1.00;;;;;;;;;;5059072;28;20024;-80
2023/08/04 09:46:31;;;;;;;0.80;0.80;;;;;;;;;;5055453;28;20440;-82
2023/08/04 09:48:58;;;;;;;0.88;0.80;;;;;;;;;;5054308;28;20039;-79
2023/08/04 09:51:24;;;;;;;0.95;0.80;;;;;;;;;;5056987;28;20025;-81
2023/08/04 09:53:51;;;;;;;1.55;0.90;;;;;;;;;;5054474;28;20494;-81
2023/08/04 09:56:18;;;;;;;3.70;1.35;;;;;;;;;;5052899;28;20029;-85
2023/08/04 09:58:45;;;;;;;1.05;0.90;;;;;;;;;;5051602;28;20131;-83
2023/08/04 10:01:23;;;;;;;0.90;0.90;;;;;;;;;;5047578;28;20083;-76
2023/08/04 10:03:51;;;;;;;2.20;1.17;;;;;;;;;;5052385;28;20103;-80
2023/08/04 10:06:18;;;;;;;1.92;1.17;;;;;;;;;;5051540;28;20371;-81
2023/08/04 10:08:50;;;;;;;1.05;0.98;;;;;;;;;;5058959;28;20584;-83
2023/08/04 10:11:16;;;;;;;2.92;1.42;;;;;;;;;;5072132;28;20032;-82
2023/08/04 10:13:44;;;;;;;4.72;1.23;;;;;;;;;;5062577;28;20020;-79
2023/08/04 10:16:11;;;;;;;4.32;1.30;;;;;;;;;;5051343;28;20021;-82
2023/08/04 10:18:47;;;;;;;1.58;0.93;;;;;;;;;;5054023;28;20056;-83
2023/08/04 10:21:13;;;;;;;2.13;1.30;;;;;;;;;;5053281;28;20052;-86
2023/08/04 10:23:40;;;;;;;0.90;0.80;;;;;;;;;;5054100;28;20113;-87
2023/08/04 10:26:06;;;;;;;1.67;0.77;;;;;;;;;;5056633;28;20090;-76
2023/08/04 10:28:32;;;;;;;0.70;0.70;;;;;;;;;;5051870;28;20024;-76
2023/08/04 10:31:06;;;;;;;4.15;1.27;;;;;;;;;;5057967;28;20035;-80
2023/08/04 10:33:32;;;;;;;0.90;0.82;;;;;;;;;;5049270;28;20036;-81
2023/08/04 10:36:06;;;;;;;2.50;1.20;;;;;;;;;;5052304;28;20048;-81
2023/08/04 10:38:45;;;;;;;1.15;1.05;;;;;;;;;;5050286;28;20036;-81
2023/08/04 10:41:11;;;;;;;1.75;1.25;;;;;;;;;;5051237;28;20033;-81
2023/08/04 10:43:40;;;;;;;1.42;0.98;;;;;;;;;;5056671;28;20511;-80
2023/08/04 10:46:10;;;;;;;1.75;0.88;;;;;;;;;;5054080;28;20066;-81
2023/08/04 10:48:38;;;;;;;1.00;1.00;;;;;;;;;;5059233;28;20024;-81
2023/08/04 10:51:05;;;;;;;1.35;0.90;;;;;;;;;;5061124;28;20067;-81
2023/08/04 10:53:31;;;;;;;1.08;0.70;;;;;;;;;;5053875;28;20621;-81
2023/08/04 10:55:57;;;;;;;1.20;0.93;;;;;;;;;;5050418;28;20025;-82
2023/08/04 10:58:24;;;;;;;0.93;0.90;;;;;;;;;;5050590;28;20068;-77
2023/08/04 11:00:52;;;;;;;2.00;1.52;;;;;;;;;;5050237;28;20120;-82
2023/08/04 11:03:19;;;;;;;1.65;0.85;;;;;;;;;;5058332;28;20091;-81
2023/08/04 11:05:45;;;;;;;2.92;1.23;;;;;;;;;;5045504;28;20086;-81
2023/08/04 11:08:11;;;;;;;0.90;0.68;;;;;;;;;;5046901;28;20029;-81
2023/08/04 11:10:44;;;;;;;1.17;0.93;;;;;;;;;;5061298;28;20044;-81
2023/08/04 11:13:10;;;;;;;2.00;0.80;;;;;;;;;;5068319;28;20107;-81
2023/08/04 11:15:42;;;;;;;0.95;0.73;;;;;;;;;;5068587;28;20032;-81
2023/08/04 11:18:12;;;;;;;0.95;0.93;;;;;;;;;;5053681;28;20475;-80
2023/08/04 11:20:39;;;;;;;0.85;0.80;;;;;;;;;;5063945;28;20040;-81
2023/08/04 11:23:05;;;;;;;0.98;0.95;;;;;;;;;;5060476;28;20024;-81
2023/08/04 11:25:34;;;;;;;1.10;0.98;;;;;;;;;;5068188;28;20017;-82
2023/08/04 11:28:03;;;;;;;0.70;0.70;;;;;;;;;;5063026;28;20035;-81
2023/08/04 11:30:29;;;;;;;1.23;0.98;;;;;;;;;;5061157;28;20411;-81
2023/08/04 11:32:55;;;;;;;0.88;0.88;;;;;;;;;;5060689;28;20063;-80
2023/08/04 11:35:21;;;;;;;1.58;1.10;;;;;;;;;;5049390;28;20016;-81
2023/08/04 11:37:47;;;;;;;2.80;1.10;;;;;;;;;;5047644;28;20036;-81
2023/08/04 11:40:20;;;;;;;1.65;1.55;;;;;;;;;;5046603;28;20033;-83
2023/08/04 11:42:46;;;;;;;1.50;1.10;;;;;;;;;;5053204;28;20412;-81
2023/08/04 11:45:13;;;;;;;6.45;1.15;;;;;;;;;;5061708;28;20028;-77
2023/08/04 11:47:38;;;;;;;2.50;1.05;;;;;;;;;;5058309;28;20047;-84
2023/08/04 11:50:05;;;;;;;1.33;1.05;;;;;;;;;;5047586;28;20025;-82
2023/08/04 11:52:31;;;;;;;6.80;0.77;;;;;;;;;;5053779;28;20079;-79
2023/08/04 11:54:57;;;;;;;2.53;0.90;;;;;;;;;;5048473;28;20101;-81
2023/08/04 11:57:23;;;;;;;1.80;1.33;;;;;;;;;;5048268;28;20033;-78
2023/08/04 11:59:49;;;;;;;1.17;0.85;;;;;;;;;;5051227;28;20656;-79
2023/08/04 12:02:15;;;;;;;3.63;0.98;;;;;;;;;;5063625;28;20475;-80
2023/08/04 12:04:41;;;;;;;5.47;1.30;;;;;;;;;;5067225;28;20032;-93
2023/08/04 12:07:08;;;;;;;2.38;0.95;;;;;;;;;;5061878;28;20029;-90
2023/08/04 12:09:34;;;;;;;3.05;1.30;;;;;;;;;;5068915;28;20024;-82
2023/08/04 12:12:02;;;;;;;1.50;1.10;;;;;;;;;;5060074;28;20029;-80
2023/08/04 12:14:28;;;;;;;2.78;1.17;;;;;;;;;;5069636;28;20043;-91
2023/08/04 12:16:57;;;;;;;1.45;1.17;;;;;;;;;;5053725;28;20033;-89
2023/08/04 12:19:24;;;;;;;1.98;0.90;;;;;;;;;;5051405;28;20064;-90
2023/08/04 12:21:51;;;;;;;1.77;1.10;;;;;;;;;;5057377;28;20072;-87
2023/08/04 12:24:17;;;;;;;3.85;1.20;;;;;;;;;;5064720;28;20108;-83
2023/08/04 12:26:44;;;;;;;2.13;1.25;;;;;;;;;;5064971;28;20613;-81
2023/08/04 12:29:10;;;;;;;5.50;1.50;;;;;;;;;;5050955;28;20031;-83
2023/08/04 12:31:36;;;;;;;2.22;1.17;;;;;;;;;;5055847;28;20025;-82
2023/08/04 12:34:03;;;;;;;2.10;1.77;;;;;;;;;;5054484;28;20497;-88
2023/08/04 12:36:29;;;;;;;2.67;1.35;;;;;;;;;;5067276;28;20040;-83
2023/08/04 12:38:55;;;;;;;2.50;1.33;;;;;;;;;;5065767;28;20025;-79
2023/08/04 12:41:21;;;;;;;12.57;1.55;;;;;;;;;;5068921;28;20051;-82
2023/08/04 12:43:47;;;;;;;1.42;1.25;;;;;;;;;;5054254;28;20094;-80
2023/08/04 12:46:13;;;;;;;2.50;1.23;;;;;;;;;;5049181;28;20067;-82
2023/08/04 12:48:39;;;;;;;5.80;1.40;;;;;;;;;;5052879;28;20399;-90
2023/08/04 12:51:05;;;;;;;3.40;0.98;;;;;;;;;;5057178;28;20021;-82
2023/08/04 12:53:31;;;;;;;2.25;1.10;;;;;;;;;;5060177;28;20491;-81
2023/08/04 12:55:57;;;;;;;2.15;1.35;;;;;;;;;;5069436;28;20025;-83
2023/08/04 12:58:23;;;;;;;3.05;0.93;;;;;;;;;;5050208;28;20315;-76
2023/08/04 13:00:49;;;;;;;0.80;0.80;;;;;;;;;;5049466;28;20087;-78
2023/08/04 13:03:15;;;;;;;9.85;1.10;;;;;;;;;;5052843;28;20031;-79
2023/08/04 13:05:42;;;;;;;1.42;1.02;;;;;;;;;;5050423;28;20021;-78
2023/08/04 13:08:08;;;;;;;4.22;1.52;;;;;;;;;;5055704;28;20107;-78
2023/08/04 13:10:34;;;;;;;1.88;1.00;;;;;;;;;;5056839;28;20086;-78
2023/08/04 13:13:00;;;;;;;3.13;1.23;;;;;;;;;;5050331;28;20108;-79
2023/08/04 13:15:26;;;;;;;2.10;1.13;;;;;;;;;;5051873;28;20075;-74
2023/08/04 13:17:52;;;;;;;1.08;1.02;;;;;;;;;;5054046;28;20136;-77
2023/08/04 13:20:18;;;;;;;1.63;1.08;;;;;;;;;;5056101;28;20053;-78
2023/08/04 13:22:46;;;;;;;2.70;1.58;;;;;;;;;;5063678;28;20027;-78
2023/08/04 13:25:12;;;;;;;6.78;1.20;;;;;;;;;;5060541;28;20479;-79
2023/08/04 13:27:38;;;;;;;1.35;1.13;;;;;;;;;;5056207;28;20025;-78
2023/08/04 13:30:04;;;;;;;3.05;0.98;;;;;;;;;;5061264;28;20029;-78
2023/08/04 13:32:30;;;;;;;0.93;0.85;;;;;;;;;;5053345;28;20364;-78
2023/08/04 13:34:56;;;;;;;1.83;1.15;;;;;;;;;;5058327;28;20031;-78
2023/08/04 13:37:23;;;;;;;1.38;0.98;;;;;;;;;;5063839;28;20082;-78
2023/08/04 13:39:49;;;;;;;1.52;1.17;;;;;;;;;;5066070;28;20031;-79
2023/08/04 13:42:15;;;;;;;0.98;0.90;;;;;;;;;;5056324;28;20388;-78
2023/08/04 13:44:41;;;;;;;2.15;0.90;;;;;;;;;;5056279;28;20032;-78
2023/08/04 13:47:07;;;;;;;3.03;0.95;;;;;;;;;;5063743;28;20028;-78
2023/08/04 13:49:33;;;;;;;1.00;0.90;;;;;;;;;;5069108;28;20048;-78
2023/08/04 13:51:59;;;;;;;1.20;0.80;;;;;;;;;;5051096;28;20052;-78
2023/08/04 13:54:25;;;;;;;1.80;0.68;;;;;;;;;;5064893;28;20032;-79
2023/08/04 13:56:51;;;;;;;1.33;0.90;;;;;;;;;;5064275;28;20040;-78
2023/08/04 13:59:17;;;;;;;0.60;0.60;;;;;;;;;;5069535;28;20041;-79
2023/08/04 14:01:46;;;;;;;1.42;0.80;;;;;;;;;;5056985;28;20033;-79
2023/08/04 14:04:14;;;;;;;1.02;0.95;;;;;;;;;;5066723;28;20043;-79
2023/08/04 14:06:40;;;;;;;1.27;0.73;;;;;;;;;;5050158;28;20083;-78
2023/08/04 14:09:06;;;;;;;0.85;0.80;;;;;;;;;;5052723;28;20033;-78
2023/08/04 14:11:32;;;;;;;0.80;0.80;;;;;;;;;;5060279;28;20028;-78
2023/08/04 14:13:58;;;;;;;0.82;0.77;;;;;;;;;;5050822;28;20074;-79
2023/08/04 14:16:24;;;;;;;0.68;0.68;;;;;;;;;;5050379;28;20028;-78
2023/08/04 14:18:50;;;;;;;0.63;0.63;;;;;;;;;;5059863;28;20387;-77
2023/08/04 14:21:16;;;;;;;0.88;0.80;;;;;;;;;;5057043;28;20052;-78
2023/08/04 14:23:42;;;;;;;0.70;0.70;;;;;;;;;;5056783;28;20056;-78
2023/08/04 14:26:08;;;;;;;0.80;0.80;;;;;;;;;;5062228;28;20025;-78
2023/08/04 14:28:34;;;;;;;1.52;1.02;;;;;;;;;;5051493;28;20040;-78
2023/08/04 14:31:00;;;;;;;4.28;1.10;;;;;;;;;;5053487;28;20029;-75
2023/08/04 14:33:26;;;;;;;1.83;0.90;;;;;;;;;;5048761;28;20032;-80
2023/08/04 14:35:52;;;;;;;0.60;0.60;;;;;;;;;;5053021;28;20037;-80
2023/08/04 14:38:18;;;;;;;1.05;0.98;;;;;;;;;;5049554;28;20090;-81